Terminal Aerodrome Forecast
Issued by NWS

Home | Current Version | Previous Version | Text Only | Print | Product List | Glossary On
Versions: 1 2 3 4 5 6 7 8 9 10 11 12 13 14 15
000
FTUS43 KDVN 191720
TAFBRL
TAF
KBRL 191720Z 1918/2018 15008KT P6SM FEW250
     FM200400 17006KT P6SM SKC WS020/23027KT
     FM201600 19011G15KT P6SM FEW250=

USA.gov is the U.S. government's official web portal to all federal, state and local government web resources and services.